sensor_id;sensor_type;location;lat;lon;timestamp;temperature;humidity
21403;DHT22;10862;51.886;17.078;2022-12-19T00:02:07;-5.80;99.90
21403;DHT22;10862;51.886;17.078;2022-12-19T00:04:33;-5.80;99.90
21403;DHT22;10862;51.886;17.078;2022-12-19T00:06:59;-5.80;99.90
21403;DHT22;10862;51.886;17.078;2022-12-19T00:09:25;-5.80;99.90
21403;DHT22;10862;51.886;17.078;2022-12-19T00:11:51;-5.80;99.90
21403;DHT22;10862;51.886;17.078;2022-12-19T00:14:18;-5.80;99.90
21403;DHT22;10862;51.886;17.078;2022-12-19T00:16:43;-5.80;99.90
21403;DHT22;10862;51.886;17.078;2022-12-19T00:19:10;-5.80;99.90
21403;DHT22;10862;51.886;17.078;2022-12-19T00:21:36;-5.80;99.90
21403;DHT22;10862;51.886;17.078;2022-12-19T00:24:03;-5.80;99.90
21403;DHT22;10862;51.886;17.078;2022-12-19T00:26:31;-5.80;99.90
21403;DHT22;10862;51.886;17.078;2022-12-19T00:28:59;-5.70;99.90
21403;DHT22;10862;51.886;17.078;2022-12-19T00:31:27;-5.80;99.90
21403;DHT22;10862;51.886;17.078;2022-12-19T00:33:54;-5.70;99.90
21403;DHT22;10862;51.886;17.078;2022-12-19T00:36:38;-5.70;99.90
21403;DHT22;10862;51.886;17.078;2022-12-19T00:39:05;-5.70;99.90
21403;DHT22;10862;51.886;17.078;2022-12-19T00:41:32;-5.70;99.90
21403;DHT22;10862;51.886;17.078;2022-12-19T00:44:03;-5.80;99.90
21403;DHT22;10862;51.886;17.078;2022-12-19T00:46:30;-5.70;99.90
21403;DHT22;10862;51.886;17.078;2022-12-19T00:48:57;-5.80;99.90
21403;DHT22;10862;51.886;17.078;2022-12-19T00:51:25;-5.80;99.90
21403;DHT22;10862;51.886;17.078;2022-12-19T00:53:53;-5.80;99.90
21403;DHT22;10862;51.886;17.078;2022-12-19T00:56:22;-5.80;99.90
21403;DHT22;10862;51.886;17.078;2022-12-19T00:58:48;-5.80;99.90
21403;DHT22;10862;51.886;17.078;2022-12-19T01:01:19;-5.80;99.90
21403;DHT22;10862;51.886;17.078;2022-12-19T01:03:45;-5.80;99.90
21403;DHT22;10862;51.886;17.078;2022-12-19T01:06:12;-5.90;99.90
21403;DHT22;10862;51.886;17.078;2022-12-19T01:08:38;-5.90;99.90
21403;DHT22;10862;51.886;17.078;2022-12-19T01:11:04;-5.90;99.90
21403;DHT22;10862;51.886;17.078;2022-12-19T01:13:31;-5.90;99.90
21403;DHT22;10862;51.886;17.078;2022-12-19T01:16:09;-5.90;99.90
21403;DHT22;10862;51.886;17.078;2022-12-19T01:18:35;-5.90;99.90
21403;DHT22;10862;51.886;17.078;2022-12-19T01:21:05;-5.90;99.90
21403;DHT22;10862;51.886;17.078;2022-12-19T01:23:31;-6.00;99.90
21403;DHT22;10862;51.886;17.078;2022-12-19T01:25:57;-6.00;99.90
21403;DHT22;10862;51.886;17.078;2022-12-19T01:28:23;-6.00;99.90
21403;DHT22;10862;51.886;17.078;2022-12-19T01:30:49;-6.00;99.90
21403;DHT22;10862;51.886;17.078;2022-12-19T01:33:16;-6.00;99.90
21403;DHT22;10862;51.886;17.078;2022-12-19T01:35:42;-6.00;99.90
21403;DHT22;10862;51.886;17.078;2022-12-19T01:38:13;-6.00;99.90
21403;DHT22;10862;51.886;17.078;2022-12-19T01:40:39;-6.00;99.90
21403;DHT22;10862;51.886;17.078;2022-12-19T01:43:05;-6.00;99.90
21403;DHT22;10862;51.886;17.078;2022-12-19T01:45:32;-6.00;99.90
21403;DHT22;10862;51.886;17.078;2022-12-19T01:50:40;-6.00;99.90
21403;DHT22;10862;51.886;17.078;2022-12-19T01:53:08;-6.00;99.90
21403;DHT22;10862;51.886;17.078;2022-12-19T01:55:36;-6.00;99.90
21403;DHT22;10862;51.886;17.078;2022-12-19T01:58:02;-6.00;99.90
21403;DHT22;10862;51.886;17.078;2022-12-19T02:00:27;-6.10;99.90
21403;DHT22;10862;51.886;17.078;2022-12-19T02:03:08;-6.00;99.90
21403;DHT22;10862;51.886;17.078;2022-12-19T02:05:36;-6.10;99.90
21403;DHT22;10862;51.886;17.078;2022-12-19T02:08:02;-6.00;99.90
21403;DHT22;10862;51.886;17.078;2022-12-19T02:10:28;-6.00;99.90
21403;DHT22;10862;51.886;17.078;2022-12-19T02:12:54;-6.00;99.90
21403;DHT22;10862;51.886;17.078;2022-12-19T02:15:20;-6.00;99.90
21403;DHT22;10862;51.886;17.078;2022-12-19T02:40:33;-5.80;99.90
21403;DHT22;10862;51.886;17.078;2022-12-19T02:43:04;-5.80;99.90
21403;DHT22;10862;51.886;17.078;2022-12-19T02:45:33;-5.70;99.90
21403;DHT22;10862;51.886;17.078;2022-12-19T02:48:01;-5.80;99.90
21403;DHT22;10862;51.886;17.078;2022-12-19T02:50:38;-5.80;99.90
21403;DHT22;10862;51.886;17.078;2022-12-19T02:53:04;-5.80;99.90
21403;DHT22;10862;51.886;17.078;2022-12-19T02:55:33;-5.80;99.90
21403;DHT22;10862;51.886;17.078;2022-12-19T03:04:25;-5.70;99.90
21403;DHT22;10862;51.886;17.078;2022-12-19T03:07:41;-5.70;99.90
21403;DHT22;10862;51.886;17.078;2022-12-19T03:13:19;-5.70;99.90
21403;DHT22;10862;51.886;17.078;2022-12-19T03:15:46;-5.80;99.90
21403;DHT22;10862;51.886;17.078;2022-12-19T03:18:12;-5.80;99.90
21403;DHT22;10862;51.886;17.078;2022-12-19T03:23:15;-5.80;99.90
21403;DHT22;10862;51.886;17.078;2022-12-19T03:25:44;-5.80;99.90
21403;DHT22;10862;51.886;17.078;2022-12-19T03:28:15;-5.80;99.90
21403;DHT22;10862;51.886;17.078;2022-12-19T03:30:44;-5.80;99.90
21403;DHT22;10862;51.886;17.078;2022-12-19T03:33:12;-5.80;99.90
21403;DHT22;10862;51.886;17.078;2022-12-19T03:35:40;-5.80;99.90
21403;DHT22;10862;51.886;17.078;2022-12-19T03:38:08;-5.80;99.90
21403;DHT22;10862;51.886;17.078;2022-12-19T03:40:36;-5.80;99.90
21403;DHT22;10862;51.886;17.078;2022-12-19T03:43:05;-5.80;99.90
21403;DHT22;10862;51.886;17.078;2022-12-19T03:45:53;-5.70;99.90
21403;DHT22;10862;51.886;17.078;2022-12-19T03:51:29;-5.70;99.90
21403;DHT22;10862;51.886;17.078;2022-12-19T03:59:35;-5.70;99.90
21403;DHT22;10862;51.886;17.078;2022-12-19T04:02:04;-5.80;99.90
21403;DHT22;10862;51.886;17.078;2022-12-19T04:04:32;-5.80;99.90
21403;DHT22;10862;51.886;17.078;2022-12-19T04:07:00;-5.80;99.90
21403;DHT22;10862;51.886;17.078;2022-12-19T04:09:27;-5.90;99.90
21403;DHT22;10862;51.886;17.078;2022-12-19T04:12:00;-5.80;99.90
21403;DHT22;10862;51.886;17.078;2022-12-19T04:14:33;-5.90;99.90
21403;DHT22;10862;51.886;17.078;2022-12-19T04:20:21;-5.90;99.90
21403;DHT22;10862;51.886;17.078;2022-12-19T04:25:14;-5.90;99.90
21403;DHT22;10862;51.886;17.078;2022-12-19T04:27:46;-5.90;99.90
21403;DHT22;10862;51.886;17.078;2022-12-19T04:30:14;-5.80;99.90
21403;DHT22;10862;51.886;17.078;2022-12-19T04:32:41;-5.80;99.90
21403;DHT22;10862;51.886;17.078;2022-12-19T04:35:07;-5.80;99.90
21403;DHT22;10862;51.886;17.078;2022-12-19T04:37:33;-5.70;99.90
21403;DHT22;10862;51.886;17.078;2022-12-19T04:39:59;-5.70;99.90
21403;DHT22;10862;51.886;17.078;2022-12-19T04:42:25;-5.70;99.90
21403;DHT22;10862;51.886;17.078;2022-12-19T04:44:50;-5.70;99.90
21403;DHT22;10862;51.886;17.078;2022-12-19T04:47:16;-5.60;99.90
21403;DHT22;10862;51.886;17.078;2022-12-19T04:49:42;-5.70;99.90
21403;DHT22;10862;51.886;17.078;2022-12-19T04:52:08;-5.70;99.90
21403;DHT22;10862;51.886;17.078;2022-12-19T04:54:33;-5.70;99.90
21403;DHT22;10862;51.886;17.078;2022-12-19T04:56:59;-5.70;99.90
21403;DHT22;10862;51.886;17.078;2022-12-19T04:59:25;-5.70;99.90
21403;DHT22;10862;51.886;17.078;2022-12-19T05:01:50;-5.70;99.90
21403;DHT22;10862;51.886;17.078;2022-12-19T05:04:16;-5.70;99.90
21403;DHT22;10862;51.886;17.078;2022-12-19T05:06:42;-5.70;99.90
21403;DHT22;10862;51.886;17.078;2022-12-19T05:09:09;-5.60;99.90
21403;DHT22;10862;51.886;17.078;2022-12-19T05:11:35;-5.60;99.90
21403;DHT22;10862;51.886;17.078;2022-12-19T05:14:01;-5.50;99.90
21403;DHT22;10862;51.886;17.078;2022-12-19T05:16:27;-5.50;99.90
21403;DHT22;10862;51.886;17.078;2022-12-19T05:18:53;-5.50;99.90
21403;DHT22;10862;51.886;17.078;2022-12-19T05:21:19;-5.40;99.90
21403;DHT22;10862;51.886;17.078;2022-12-19T05:23:45;-5.50;99.90
21403;DHT22;10862;51.886;17.078;2022-12-19T05:26:11;-5.40;99.90
21403;DHT22;10862;51.886;17.078;2022-12-19T05:28:37;-5.40;99.90
21403;DHT22;10862;51.886;17.078;2022-12-19T05:31:08;-5.40;99.90
21403;DHT22;10862;51.886;17.078;2022-12-19T05:33:34;-5.40;99.90
21403;DHT22;10862;51.886;17.078;2022-12-19T05:36:00;-5.40;99.90
21403;DHT22;10862;51.886;17.078;2022-12-19T05:38:26;-5.50;99.90
21403;DHT22;10862;51.886;17.078;2022-12-19T05:40:52;-5.40;99.90
21403;DHT22;10862;51.886;17.078;2022-12-19T05:43:18;-5.40;99.90
21403;DHT22;10862;51.886;17.078;2022-12-19T05:45:43;-5.40;99.90
21403;DHT22;10862;51.886;17.078;2022-12-19T05:48:09;-5.50;99.90
21403;DHT22;10862;51.886;17.078;2022-12-19T05:50:35;-5.50;99.90
21403;DHT22;10862;51.886;17.078;2022-12-19T05:53:00;-5.50;99.90
21403;DHT22;10862;51.886;17.078;2022-12-19T05:55:26;-5.50;99.90
21403;DHT22;10862;51.886;17.078;2022-12-19T05:57:52;-5.50;99.90
21403;DHT22;10862;51.886;17.078;2022-12-19T06:00:18;-5.40;99.90
21403;DHT22;10862;51.886;17.078;2022-12-19T06:02:43;-5.40;99.90
21403;DHT22;10862;51.886;17.078;2022-12-19T06:05:09;-5.40;99.90
21403;DHT22;10862;51.886;17.078;2022-12-19T06:07:34;-5.40;99.90
21403;DHT22;10862;51.886;17.078;2022-12-19T06:10:00;-5.30;99.90
21403;DHT22;10862;51.886;17.078;2022-12-19T06:12:26;-5.30;99.90
21403;DHT22;10862;51.886;17.078;2022-12-19T06:14:51;-5.30;99.90
21403;DHT22;10862;51.886;17.078;2022-12-19T06:17:17;-5.20;99.90
21403;DHT22;10862;51.886;17.078;2022-12-19T06:19:43;-5.20;99.90
21403;DHT22;10862;51.886;17.078;2022-12-19T06:22:12;-5.20;99.90
21403;DHT22;10862;51.886;17.078;2022-12-19T06:24:38;-5.30;99.90
21403;DHT22;10862;51.886;17.078;2022-12-19T06:27:03;-5.30;99.90
21403;DHT22;10862;51.886;17.078;2022-12-19T06:29:29;-5.20;99.90
21403;DHT22;10862;51.886;17.078;2022-12-19T06:31:55;-5.20;99.90
21403;DHT22;10862;51.886;17.078;2022-12-19T06:34:21;-5.20;99.90
21403;DHT22;10862;51.886;17.078;2022-12-19T06:36:47;-5.20;99.90
21403;DHT22;10862;51.886;17.078;2022-12-19T06:39:13;-5.10;99.90
21403;DHT22;10862;51.886;17.078;2022-12-19T06:41:40;-5.10;99.90
21403;DHT22;10862;51.886;17.078;2022-12-19T06:44:24;-5.10;99.90
21403;DHT22;10862;51.886;17.078;2022-12-19T06:46:51;-5.00;99.90
21403;DHT22;10862;51.886;17.078;2022-12-19T06:49:17;-5.00;99.90
21403;DHT22;10862;51.886;17.078;2022-12-19T06:51:43;-5.00;99.90
21403;DHT22;10862;51.886;17.078;2022-12-19T06:54:12;-5.10;99.90
21403;DHT22;10862;51.886;17.078;2022-12-19T06:56:39;-4.80;99.90
21403;DHT22;10862;51.886;17.078;2022-12-19T06:59:06;-4.80;99.90
21403;DHT22;10862;51.886;17.078;2022-12-19T07:01:52;-4.80;99.90
21403;DHT22;10862;51.886;17.078;2022-12-19T07:04:28;-4.70;99.90
21403;DHT22;10862;51.886;17.078;2022-12-19T07:06:54;-4.60;99.90
21403;DHT22;10862;51.886;17.078;2022-12-19T07:09:20;-4.60;99.90
21403;DHT22;10862;51.886;17.078;2022-12-19T07:11:46;-4.60;99.90
21403;DHT22;10862;51.886;17.078;2022-12-19T07:14:12;-4.60;99.90
21403;DHT22;10862;51.886;17.078;2022-12-19T07:16:38;-4.60;99.90
21403;DHT22;10862;51.886;17.078;2022-12-19T07:19:05;-4.60;99.90
21403;DHT22;10862;51.886;17.078;2022-12-19T07:21:31;-4.60;99.90
21403;DHT22;10862;51.886;17.078;2022-12-19T07:23:58;-4.50;99.90
21403;DHT22;10862;51.886;17.078;2022-12-19T07:26:24;-4.40;99.90
21403;DHT22;10862;51.886;17.078;2022-12-19T07:28:49;-4.40;99.90
21403;DHT22;10862;51.886;17.078;2022-12-19T07:31:15;-4.40;99.90
21403;DHT22;10862;51.886;17.078;2022-12-19T07:33:42;-4.40;99.90
21403;DHT22;10862;51.886;17.078;2022-12-19T07:36:08;-4.30;99.90
21403;DHT22;10862;51.886;17.078;2022-12-19T07:38:33;-4.20;99.90
21403;DHT22;10862;51.886;17.078;2022-12-19T07:41:02;-4.10;99.90
21403;DHT22;10862;51.886;17.078;2022-12-19T07:43:27;-4.10;99.90
21403;DHT22;10862;51.886;17.078;2022-12-19T07:45:54;-4.00;99.90
21403;DHT22;10862;51.886;17.078;2022-12-19T07:48:20;-3.80;99.90
21403;DHT22;10862;51.886;17.078;2022-12-19T07:50:46;-3.90;99.90
21403;DHT22;10862;51.886;17.078;2022-12-19T07:53:13;-3.90;99.90
21403;DHT22;10862;51.886;17.078;2022-12-19T07:55:39;-3.80;99.90
21403;DHT22;10862;51.886;17.078;2022-12-19T07:58:05;-3.80;99.90
21403;DHT22;10862;51.886;17.078;2022-12-19T08:00:31;-3.60;99.90
21403;DHT22;10862;51.886;17.078;2022-12-19T08:02:59;-3.60;99.90
21403;DHT22;10862;51.886;17.078;2022-12-19T08:05:25;-3.50;99.90
21403;DHT22;10862;51.886;17.078;2022-12-19T08:07:52;-3.30;99.90
21403;DHT22;10862;51.886;17.078;2022-12-19T08:10:18;-3.20;99.90
21403;DHT22;10862;51.886;17.078;2022-12-19T08:12:44;-3.10;99.90
21403;DHT22;10862;51.886;17.078;2022-12-19T08:15:10;-3.00;99.90
21403;DHT22;10862;51.886;17.078;2022-12-19T08:17:36;-2.90;99.90
21403;DHT22;10862;51.886;17.078;2022-12-19T08:20:04;-2.80;99.90
21403;DHT22;10862;51.886;17.078;2022-12-19T08:22:31;-2.70;99.90
21403;DHT22;10862;51.886;17.078;2022-12-19T08:24:56;-2.60;98.30
21403;DHT22;10862;51.886;17.078;2022-12-19T08:27:22;-2.40;96.30
21403;DHT22;10862;51.886;17.078;2022-12-19T08:29:48;-2.40;93.20
21403;DHT22;10862;51.886;17.078;2022-12-19T08:32:15;-2.30;90.60
21403;DHT22;10862;51.886;17.078;2022-12-19T08:34:41;-2.10;85.80
21403;DHT22;10862;51.886;17.078;2022-12-19T08:37:07;-2.00;79.40
21403;DHT22;10862;51.886;17.078;2022-12-19T08:39:33;-1.90;74.10
21403;DHT22;10862;51.886;17.078;2022-12-19T08:41:59;-1.70;69.70
21403;DHT22;10862;51.886;17.078;2022-12-19T08:44:25;-1.90;61.90
21403;DHT22;10862;51.886;17.078;2022-12-19T08:46:51;-1.80;57.90
21403;DHT22;10862;51.886;17.078;2022-12-19T08:49:17;-1.60;54.10
21403;DHT22;10862;51.886;17.078;2022-12-19T08:51:43;-1.50;49.80
21403;DHT22;10862;51.886;17.078;2022-12-19T08:54:09;-1.40;42.80
21403;DHT22;10862;51.886;17.078;2022-12-19T08:56:35;-1.40;37.60
21403;DHT22;10862;51.886;17.078;2022-12-19T08:59:00;-1.20;32.40
21403;DHT22;10862;51.886;17.078;2022-12-19T09:01:26;-1.10;27.60
21403;DHT22;10862;51.886;17.078;2022-12-19T09:03:51;-1.30;24.90
21403;DHT22;10862;51.886;17.078;2022-12-19T09:06:17;-1.20;23.10
21403;DHT22;10862;51.886;17.078;2022-12-19T09:08:43;-1.00;19.80
21403;DHT22;10862;51.886;17.078;2022-12-19T09:11:15;-0.80;16.90
21403;DHT22;10862;51.886;17.078;2022-12-19T09:13:41;-0.40;12.10
21403;DHT22;10862;51.886;17.078;2022-12-19T09:16:11;0.00;4.10
21403;DHT22;10862;51.886;17.078;2022-12-19T09:18:37;0.30;1.00
21403;DHT22;10862;51.886;17.078;2022-12-19T09:21:04;0.70;1.00
21403;DHT22;10862;51.886;17.078;2022-12-19T09:23:30;1.00;1.00
21403;DHT22;10862;51.886;17.078;2022-12-19T09:26:07;1.00;1.00
21403;DHT22;10862;51.886;17.078;2022-12-19T09:28:34;1.00;1.00
21403;DHT22;10862;51.886;17.078;2022-12-19T09:31:02;0.80;1.00
21403;DHT22;10862;51.886;17.078;2022-12-19T09:33:31;1.00;1.00
21403;DHT22;10862;51.886;17.078;2022-12-19T09:35:57;1.10;1.00
21403;DHT22;10862;51.886;17.078;2022-12-19T09:38:24;1.20;1.00
21403;DHT22;10862;51.886;17.078;2022-12-19T09:46:35;0.80;1.00
21403;DHT22;10862;51.886;17.078;2022-12-19T09:49:13;0.80;1.00
21403;DHT22;10862;51.886;17.078;2022-12-19T09:57:02;0.50;1.00
21403;DHT22;10862;51.886;17.078;2022-12-19T09:59:38;0.50;1.00
21403;DHT22;10862;51.886;17.078;2022-12-19T10:02:39;0.40;1.00
21403;DHT22;10862;51.886;17.078;2022-12-19T10:07:34;0.10;1.00
21403;DHT22;10862;51.886;17.078;2022-12-19T10:10:00;0.00;1.00
21403;DHT22;10862;51.886;17.078;2022-12-19T10:21:03;-0.20;1.00
21403;DHT22;10862;51.886;17.078;2022-12-19T10:26:28;-0.10;1.00
21403;DHT22;10862;51.886;17.078;2022-12-19T10:31:59;0.00;1.00
21403;DHT22;10862;51.886;17.078;2022-12-19T10:34:38;0.10;1.00
21403;DHT22;10862;51.886;17.078;2022-12-19T10:37:24;0.10;1.00
21403;DHT22;10862;51.886;17.078;2022-12-19T10:42:43;0.20;1.00
21403;DHT22;10862;51.886;17.078;2022-12-19T10:45:18;0.20;1.00
21403;DHT22;10862;51.886;17.078;2022-12-19T10:47:50;0.40;1.00
21403;DHT22;10862;51.886;17.078;2022-12-19T10:50:28;0.30;1.00
21403;DHT22;10862;51.886;17.078;2022-12-19T10:55:45;0.40;1.00
21403;DHT22;10862;51.886;17.078;2022-12-19T11:00:36;0.40;1.00
21403;DHT22;10862;51.886;17.078;2022-12-19T11:03:12;0.40;1.00
21403;DHT22;10862;51.886;17.078;2022-12-19T11:05:51;0.40;1.00
21403;DHT22;10862;51.886;17.078;2022-12-19T11:08:23;0.40;1.00
21403;DHT22;10862;51.886;17.078;2022-12-19T11:10:52;0.40;1.00
21403;DHT22;10862;51.886;17.078;2022-12-19T11:13:26;0.50;1.00
21403;DHT22;10862;51.886;17.078;2022-12-19T11:15:55;0.50;1.00
21403;DHT22;10862;51.886;17.078;2022-12-19T11:18:23;0.70;1.00
21403;DHT22;10862;51.886;17.078;2022-12-19T11:21:17;0.80;1.00
21403;DHT22;10862;51.886;17.078;2022-12-19T11:26:43;0.90;1.00
21403;DHT22;10862;51.886;17.078;2022-12-19T11:29:38;1.00;1.00
21403;DHT22;10862;51.886;17.078;2022-12-19T11:32:36;1.00;1.00
21403;DHT22;10862;51.886;17.078;2022-12-19T11:35:14;1.00;1.00
21403;DHT22;10862;51.886;17.078;2022-12-19T11:40:38;1.00;1.00
21403;DHT22;10862;51.886;17.078;2022-12-19T11:48:46;1.10;1.00
21403;DHT22;10862;51.886;17.078;2022-12-19T11:51:32;1.10;1.00
21403;DHT22;10862;51.886;17.078;2022-12-19T11:54:19;1.10;1.00
21403;DHT22;10862;51.886;17.078;2022-12-19T11:56:46;1.10;1.00
21403;DHT22;10862;51.886;17.078;2022-12-19T11:59:19;1.10;1.00
21403;DHT22;10862;51.886;17.078;2022-12-19T12:07:13;1.20;1.00
21403;DHT22;10862;51.886;17.078;2022-12-19T12:09:48;1.20;1.00
21403;DHT22;10862;51.886;17.078;2022-12-19T12:15:27;1.30;1.00
21403;DHT22;10862;51.886;17.078;2022-12-19T12:31:44;1.10;1.00
21403;DHT22;10862;51.886;17.078;2022-12-19T12:34:18;1.20;1.00
21403;DHT22;10862;51.886;17.078;2022-12-19T12:44:59;1.20;1.00
21403;DHT22;10862;51.886;17.078;2022-12-19T12:47:27;1.10;1.00
21403;DHT22;10862;51.886;17.078;2022-12-19T12:50:05;1.10;1.00
21403;DHT22;10862;51.886;17.078;2022-12-19T12:52:38;1.20;1.00
21403;DHT22;10862;51.886;17.078;2022-12-19T12:55:17;1.10;1.00
21403;DHT22;10862;51.886;17.078;2022-12-19T12:57:43;1.10;1.00
21403;DHT22;10862;51.886;17.078;2022-12-19T13:05:38;1.10;1.00
21403;DHT22;10862;51.886;17.078;2022-12-19T13:10:58;1.10;1.00
21403;DHT22;10862;51.886;17.078;2022-12-19T13:13:47;1.10;1.00
21403;DHT22;10862;51.886;17.078;2022-12-19T13:19:25;1.00;1.00
21403;DHT22;10862;51.886;17.078;2022-12-19T13:24:54;1.00;1.00
21403;DHT22;10862;51.886;17.078;2022-12-19T13:38:17;1.00;1.00
21403;DHT22;10862;51.886;17.078;2022-12-19T13:40:55;0.90;1.00
21403;DHT22;10862;51.886;17.078;2022-12-19T13:43:33;1.00;1.00
21403;DHT22;10862;51.886;17.078;2022-12-19T13:49:24;0.90;1.00
21403;DHT22;10862;51.886;17.078;2022-12-19T13:51:52;0.90;1.00
21403;DHT22;10862;51.886;17.078;2022-12-19T13:54:22;1.00;1.00
21403;DHT22;10862;51.886;17.078;2022-12-19T13:56:49;1.00;1.00
21403;DHT22;10862;51.886;17.078;2022-12-19T13:59:15;0.90;1.00
21403;DHT22;10862;51.886;17.078;2022-12-19T14:01:41;0.90;1.00
21403;DHT22;10862;51.886;17.078;2022-12-19T14:04:10;0.90;1.00
21403;DHT22;10862;51.886;17.078;2022-12-19T14:06:45;0.90;1.00
21403;DHT22;10862;51.886;17.078;2022-12-19T14:09:21;0.90;1.00
21403;DHT22;10862;51.886;17.078;2022-12-19T14:11:49;0.90;1.00
21403;DHT22;10862;51.886;17.078;2022-12-19T14:14:17;0.90;1.00
21403;DHT22;10862;51.886;17.078;2022-12-19T14:17:21;1.00;1.00
21403;DHT22;10862;51.886;17.078;2022-12-19T14:19:49;1.00;1.00
21403;DHT22;10862;51.886;17.078;2022-12-19T14:25:10;0.90;1.00
21403;DHT22;10862;51.886;17.078;2022-12-19T14:27:43;1.00;1.00
21403;DHT22;10862;51.886;17.078;2022-12-19T14:30:20;1.00;1.00
21403;DHT22;10862;51.886;17.078;2022-12-19T14:32:49;1.00;1.00
21403;DHT22;10862;51.886;17.078;2022-12-19T14:35:20;0.90;1.00
21403;DHT22;10862;51.886;17.078;2022-12-19T14:37:56;1.00;1.00
21403;DHT22;10862;51.886;17.078;2022-12-19T14:40:27;0.90;1.00
21403;DHT22;10862;51.886;17.078;2022-12-19T14:43:02;1.00;1.00
21403;DHT22;10862;51.886;17.078;2022-12-19T14:45:47;1.00;1.00
21403;DHT22;10862;51.886;17.078;2022-12-19T14:48:34;1.00;1.00
21403;DHT22;10862;51.886;17.078;2022-12-19T14:51:10;1.00;1.00
21403;DHT22;10862;51.886;17.078;2022-12-19T14:53:38;1.00;1.00
21403;DHT22;10862;51.886;17.078;2022-12-19T14:56:18;1.00;1.00
21403;DHT22;10862;51.886;17.078;2022-12-19T14:58:54;1.00;1.00
21403;DHT22;10862;51.886;17.078;2022-12-19T15:01:25;1.00;1.00
21403;DHT22;10862;51.886;17.078;2022-12-19T15:04:03;1.00;1.00
21403;DHT22;10862;51.886;17.078;2022-12-19T15:06:30;1.00;1.00
21403;DHT22;10862;51.886;17.078;2022-12-19T15:09:03;1.00;1.00
21403;DHT22;10862;51.886;17.078;2022-12-19T15:11:33;1.00;1.00
21403;DHT22;10862;51.886;17.078;2022-12-19T15:14:26;1.00;1.00
21403;DHT22;10862;51.886;17.078;2022-12-19T15:17:09;1.10;1.00
21403;DHT22;10862;51.886;17.078;2022-12-19T15:19:38;1.10;1.00
21403;DHT22;10862;51.886;17.078;2022-12-19T15:22:04;1.10;1.00
21403;DHT22;10862;51.886;17.078;2022-12-19T15:24:29;1.00;1.00
21403;DHT22;10862;51.886;17.078;2022-12-19T15:26:55;1.20;1.00
21403;DHT22;10862;51.886;17.078;2022-12-19T15:29:21;1.10;1.00
21403;DHT22;10862;51.886;17.078;2022-12-19T15:31:47;1.10;1.00
21403;DHT22;10862;51.886;17.078;2022-12-19T15:34:27;1.00;1.00
21403;DHT22;10862;51.886;17.078;2022-12-19T15:36:54;1.00;1.00
21403;DHT22;10862;51.886;17.078;2022-12-19T15:39:21;1.00;1.00
21403;DHT22;10862;51.886;17.078;2022-12-19T15:41:49;1.00;1.00
21403;DHT22;10862;51.886;17.078;2022-12-19T15:44:23;0.90;1.00
21403;DHT22;10862;51.886;17.078;2022-12-19T15:46:50;1.00;1.00
21403;DHT22;10862;51.886;17.078;2022-12-19T15:49:17;1.00;1.00
21403;DHT22;10862;51.886;17.078;2022-12-19T15:51:43;1.00;1.00
21403;DHT22;10862;51.886;17.078;2022-12-19T15:54:09;1.10;1.00
21403;DHT22;10862;51.886;17.078;2022-12-19T15:56:38;1.00;1.00
21403;DHT22;10862;51.886;17.078;2022-12-19T15:59:05;1.00;1.00
21403;DHT22;10862;51.886;17.078;2022-12-19T16:01:39;1.00;1.00
21403;DHT22;10862;51.886;17.078;2022-12-19T16:04:10;1.10;1.00
21403;DHT22;10862;51.886;17.078;2022-12-19T16:06:37;1.10;1.00
21403;DHT22;10862;51.886;17.078;2022-12-19T16:09:21;1.00;1.00
21403;DHT22;10862;51.886;17.078;2022-12-19T16:11:48;1.10;1.00
21403;DHT22;10862;51.886;17.078;2022-12-19T16:14:14;1.10;1.00
21403;DHT22;10862;51.886;17.078;2022-12-19T16:16:40;1.00;1.00
21403;DHT22;10862;51.886;17.078;2022-12-19T16:19:36;1.10;1.00
21403;DHT22;10862;51.886;17.078;2022-12-19T16:22:19;1.00;1.00
21403;DHT22;10862;51.886;17.078;2022-12-19T16:24:45;1.10;1.00
21403;DHT22;10862;51.886;17.078;2022-12-19T16:27:26;1.10;1.00
21403;DHT22;10862;51.886;17.078;2022-12-19T16:29:54;1.10;1.00
21403;DHT22;10862;51.886;17.078;2022-12-19T16:32:21;1.10;1.00
21403;DHT22;10862;51.886;17.078;2022-12-19T16:34:51;1.10;1.00
21403;DHT22;10862;51.886;17.078;2022-12-19T16:37:17;1.10;1.00
21403;DHT22;10862;51.886;17.078;2022-12-19T16:39:42;1.10;1.00
21403;DHT22;10862;51.886;17.078;2022-12-19T16:42:16;1.10;1.00
21403;DHT22;10862;51.886;17.078;2022-12-19T16:44:43;1.10;1.00
21403;DHT22;10862;51.886;17.078;2022-12-19T16:47:12;1.20;1.00
21403;DHT22;10862;51.886;17.078;2022-12-19T16:49:38;1.20;1.00
21403;DHT22;10862;51.886;17.078;2022-12-19T16:52:04;1.10;1.00
21403;DHT22;10862;51.886;17.078;2022-12-19T16:54:30;1.00;1.00
21403;DHT22;10862;51.886;17.078;2022-12-19T16:56:57;1.00;1.00
21403;DHT22;10862;51.886;17.078;2022-12-19T16:59:36;1.10;1.00
21403;DHT22;10862;51.886;17.078;2022-12-19T17:02:24;1.10;1.00
21403;DHT22;10862;51.886;17.078;2022-12-19T17:04:56;1.10;1.00
21403;DHT22;10862;51.886;17.078;2022-12-19T17:07:21;1.10;1.00
21403;DHT22;10862;51.886;17.078;2022-12-19T17:09:47;1.10;1.00
21403;DHT22;10862;51.886;17.078;2022-12-19T17:12:17;1.10;1.00
21403;DHT22;10862;51.886;17.078;2022-12-19T17:14:43;1.10;1.90
21403;DHT22;10862;51.886;17.078;2022-12-19T17:17:13;1.00;4.30
21403;DHT22;10862;51.886;17.078;2022-12-19T17:19:41;1.00;2.80
21403;DHT22;10862;51.886;17.078;2022-12-19T17:22:17;1.10;2.80
21403;DHT22;10862;51.886;17.078;2022-12-19T17:24:47;1.10;3.90
21403;DHT22;10862;51.886;17.078;2022-12-19T17:27:13;1.20;6.80
21403;DHT22;10862;51.886;17.078;2022-12-19T17:29:39;1.20;9.30
21403;DHT22;10862;51.886;17.078;2022-12-19T17:32:05;1.10;10.90
21403;DHT22;10862;51.886;17.078;2022-12-19T17:34:33;1.00;14.40
21403;DHT22;10862;51.886;17.078;2022-12-19T17:37:00;1.10;15.70
21403;DHT22;10862;51.886;17.078;2022-12-19T17:39:29;1.10;15.70
21403;DHT22;10862;51.886;17.078;2022-12-19T17:41:58;1.10;16.80
21403;DHT22;10862;51.886;17.078;2022-12-19T17:44:25;1.10;16.00
21403;DHT22;10862;51.886;17.078;2022-12-19T17:46:51;1.10;16.70
21403;DHT22;10862;51.886;17.078;2022-12-19T17:49:24;1.00;17.80
21403;DHT22;10862;51.886;17.078;2022-12-19T17:51:51;1.10;18.50
21403;DHT22;10862;51.886;17.078;2022-12-19T17:54:18;1.20;19.70
21403;DHT22;10862;51.886;17.078;2022-12-19T17:56:44;1.00;20.50
21403;DHT22;10862;51.886;17.078;2022-12-19T17:59:09;1.00;22.20
21403;DHT22;10862;51.886;17.078;2022-12-19T18:01:36;1.10;23.60
21403;DHT22;10862;51.886;17.078;2022-12-19T18:04:02;1.10;24.00
21403;DHT22;10862;51.886;17.078;2022-12-19T18:06:28;1.10;26.30
21403;DHT22;10862;51.886;17.078;2022-12-19T18:08:54;1.10;30.60
21403;DHT22;10862;51.886;17.078;2022-12-19T18:11:24;1.00;32.40
21403;DHT22;10862;51.886;17.078;2022-12-19T18:13:51;1.10;35.00
21403;DHT22;10862;51.886;17.078;2022-12-19T18:16:19;1.00;37.60
21403;DHT22;10862;51.886;17.078;2022-12-19T18:18:46;1.10;39.30
21403;DHT22;10862;51.886;17.078;2022-12-19T18:21:17;1.20;39.50
21403;DHT22;10862;51.886;17.078;2022-12-19T18:23:44;1.10;41.60